Grantsville, West Virginia
Current Conditions -  °F | °C
As of 7:53 AM on Wednesday 22 Oct 2014 (Local Time) from KPKB Reporting Station
Overcast Overcast  
Wind Chill: 46°   Ceiling: 1400
Heat Index: 48°   Visibility: 10mi
Dew Point: 44°   Wind: 5mph
Humidity: 86%   Direction: 320°NW
Pressure: 30.18"   Gusts: NA
Location:  38.92°N, 81.1°W
Report Text: KPKB 221153Z 32004KT 10SM BKN014 OVC020 09/07 A3018 RMK AO2 SLP221 60001 70023 T00890067 10089 20072 53018
Loading
Personal Weather Stations






























Interactive Weather Map
Tropical Storm Tracking
New forecast layout! Learn more

10-Day Weather Forecast

Advertisements
Track Severe Weather on mobile